Terminal Aerodrome Forecast
Issued by NWS

Home | Current Version | Previous Version | Text Only | Print | Product List | Glossary On
Versions: 1 2 3 4 5 6 7 8 9 10 11 12 13 14 15 16 17
000
FTUS44 KTSA 221900 AAA
TAFRVS
TAF AMD
KRVS 222000Z 2220/2318 28010KT P6SM SCT018 BKN025 BKN040
     FM222100 32012G18KT P6SM SCT025 BKN040
     FM230100 29003KT P6SM SCT250
     FM231200 27005KT P6SM BKN150=

USA.gov is the U.S. government's official web portal to all federal, state and local government web resources and services.